EPWAEPKT

Guest
Details From EPWA - WARSZAWA Okecie
To EPKT - PYRZOWICE
Flight Number -
Tags generated
Created
Modified
Stats Distance 124 nm / 230 km
Max Altitude 7,800 ft / 2,377 m
Waypoints 3
Social Downloads 37
Likes 0
Share VATSIM

Download

Looking for another format? Having issues loading an existing format? Contact us
Advertisement - Login to hide

Notes

Basic altitude profile: - Ascent Rate: 2500ft/min - Ascent Speed: 250kts - Cruise Altitude: 35000ft - Cruise Speed: 420kts - Descent Rate: 1500ft/min - Descent Speed: 250kts Options: - Use NATs: yes - Use PACOTS: yes - Use low airways: yes - Use high airways: yes

Route

EPWA BESAL EPKT

ID Type Via Altitude Latitude Longitude Leg Dist Tot Dist Heading (true) Name
O EPWA APT - 0 ft / 0 m 52.16509˚ 20.96692˚ - 0 nm - WARSZAWA Okecie
BESAL FIX - 7,800 ft / 2,377 m 50.99333˚ 19.58528˚ 87 nm 87 nm 217° / 216° -
O EPKT APT - 0 ft / 0 m 50.47426˚ 19.07436˚ 36 nm 123 nm 212° / 212° PYRZOWICE

Altitude Profile

Advertisement - Login to hide

EPWA

Details ICAO EPWA (WAW)
Name WARSZAWA Okecie
Region Poland
Timezone Europe/Warsaw (UTC+2.0)
Stats Elevation 328 ft / 100 m (AMSL)
Location 52.165091° 20.966923°
Runways 2
Magnetic Variation 5.877° E

METAR

EPWA 171930Z 01006KT CAVOK 22/19 Q1004 NOSIG

Decode

TAF

TAF EPWA 171730Z 1718/1818 02005KT 9999 SCT025 PROB40 TEMPO 1718/1721 -SHRA SCT020CB PROB40 1723/1808 2500 BR BKN007 TEMPO 1810/1818 VRB15G25KT 3000 TSRA BKN006 BKN012CB PROB40 TEMPO 1812/1817 1200 TSGR BKN002 BKN008CB

Decode

Departure Runways

ID Width Length Bearing (true) Bearing (mag) Surface Threshold Offset Overrun Length
11 164 ft / 50 m 9,163 ft / 2,793 m 114.64° 108.76° Asphalt 0 ft / 0 m 476 ft / 145 m
15 197 ft / 60 m 12,112 ft / 3,692 m 151.85° 145.97° Asphalt 0 ft / 0 m 0 ft / 0 m
29 164 ft / 50 m 9,163 ft / 2,793 m 294.67° 288.79° Asphalt 1,608 ft / 490 m 0 ft / 0 m
33 197 ft / 60 m 12,112 ft / 3,692 m 331.87° 325.99° Asphalt 0 ft / 0 m 0 ft / 0 m

EPKT

Details ICAO EPKT (KTW)
Name PYRZOWICE
Region Poland
Timezone Europe/Warsaw (UTC+2.0)
Stats Elevation 995 ft / 303 m (AMSL)
Location 50.474263° 19.074356°
Runways 1
Magnetic Variation 5.158° E

METAR

EPKT 171930Z 29010KT 8000 -RA FEW003 OVC004 17/17 Q1006

Decode

TAF

TAF AMD EPKT 171813Z 1718/1818 28010KT 6000 BKN009 BKN013 TEMPO 1718/1804 2000 RA DZ BR BKN002 TEMPO 1804/1818 4000 SHRA BR BKN004 BKN013CB PROB30 TEMPO 1812/1816 TSRA

Decode

Destination Runways

ID Width Length Bearing (true) Bearing (mag) Surface Threshold Offset Overrun Length
09 195 ft / 59 m 9,156 ft / 2,791 m 90.18° 85.02° Concrete 0 ft / 0 m 0 ft / 0 m
27 195 ft / 59 m 9,156 ft / 2,791 m 270.22° 265.06° Concrete 0 ft / 0 m 0 ft / 0 m

Approach Navaids

Runway Type Ident Frequency Range Bearing (true) Bearing (mag) Slope Elevation
27 Localiser KAT 109.90 MHz 18 nm / 33 km 270.18° 265.02° - 995 ft / 303 m (AMSL)
27 Glidescope KAT 109.90 MHz 10 nm / 19 km 270.20° 265.04° 3.20° 995 ft / 303 m (AMSL)

Popular Alternatives